sensor_id;sensor_type;location;lat;lon;timestamp;temperature;humidity
47114;DHT22;32867;51.556;6.832;2023-07-13T00:04:54;18.60;99.70
47114;DHT22;32867;51.556;6.832;2023-07-13T00:09:55;18.40;98.80
47114;DHT22;32867;51.556;6.832;2023-07-13T00:15:02;18.40;98.10
47114;DHT22;32867;51.556;6.832;2023-07-13T00:20:03;18.40;97.60
47114;DHT22;32867;51.556;6.832;2023-07-13T00:25:05;18.30;97.20
47114;DHT22;32867;51.556;6.832;2023-07-13T00:30:06;18.20;97.10
47114;DHT22;32867;51.556;6.832;2023-07-13T00:35:08;18.20;97.20
47114;DHT22;32867;51.556;6.832;2023-07-13T00:40:11;18.20;96.70
47114;DHT22;32867;51.556;6.832;2023-07-13T00:50:16;18.10;96.90
47114;DHT22;32867;51.556;6.832;2023-07-13T00:55:17;18.00;97.00
47114;DHT22;32867;51.556;6.832;2023-07-13T01:00:20;18.00;97.30
47114;DHT22;32867;51.556;6.832;2023-07-13T01:05:22;18.00;97.40
47114;DHT22;32867;51.556;6.832;2023-07-13T01:10:25;17.80;97.80
47114;DHT22;32867;51.556;6.832;2023-07-13T01:15:42;17.80;97.80
47114;DHT22;32867;51.556;6.832;2023-07-13T01:20:53;17.70;98.20
47114;DHT22;32867;51.556;6.832;2023-07-13T01:25:56;17.60;98.80
47114;DHT22;32867;51.556;6.832;2023-07-13T01:30:58;17.50;99.00
47114;DHT22;32867;51.556;6.832;2023-07-13T01:36:00;17.50;99.10
47114;DHT22;32867;51.556;6.832;2023-07-13T01:41:03;17.50;99.30
47114;DHT22;32867;51.556;6.832;2023-07-13T01:46:06;17.50;99.40
47114;DHT22;32867;51.556;6.832;2023-07-13T01:51:06;17.60;99.00
47114;DHT22;32867;51.556;6.832;2023-07-13T01:56:07;17.60;99.20
47114;DHT22;32867;51.556;6.832;2023-07-13T02:01:08;17.50;99.60
47114;DHT22;32867;51.556;6.832;2023-07-13T02:06:08;17.40;99.90
47114;DHT22;32867;51.556;6.832;2023-07-13T02:11:09;17.40;99.90
47114;DHT22;32867;51.556;6.832;2023-07-13T02:16:10;17.40;99.90
47114;DHT22;32867;51.556;6.832;2023-07-13T02:21:10;17.40;99.90
47114;DHT22;32867;51.556;6.832;2023-07-13T02:26:11;17.30;99.90
47114;DHT22;32867;51.556;6.832;2023-07-13T02:31:14;17.30;99.90
47114;DHT22;32867;51.556;6.832;2023-07-13T02:36:16;17.30;99.90
47114;DHT22;32867;51.556;6.832;2023-07-13T02:41:18;17.20;99.90
47114;DHT22;32867;51.556;6.832;2023-07-13T02:46:20;17.20;99.90
47114;DHT22;32867;51.556;6.832;2023-07-13T02:51:22;17.10;99.90
47114;DHT22;32867;51.556;6.832;2023-07-13T02:56:29;16.90;99.90
47114;DHT22;32867;51.556;6.832;2023-07-13T03:01:30;17.00;99.90
47114;DHT22;32867;51.556;6.832;2023-07-13T03:06:34;17.00;99.90
47114;DHT22;32867;51.556;6.832;2023-07-13T03:11:36;16.90;99.90
47114;DHT22;32867;51.556;6.832;2023-07-13T03:16:50;16.90;99.90
47114;DHT22;32867;51.556;6.832;2023-07-13T03:21:52;16.90;99.90
47114;DHT22;32867;51.556;6.832;2023-07-13T03:26:53;16.90;99.90
47114;DHT22;32867;51.556;6.832;2023-07-13T03:31:54;16.80;99.90
47114;DHT22;32867;51.556;6.832;2023-07-13T03:36:57;16.80;99.90
47114;DHT22;32867;51.556;6.832;2023-07-13T03:41:58;16.90;99.90
47114;DHT22;32867;51.556;6.832;2023-07-13T03:47:00;16.90;99.90
47114;DHT22;32867;51.556;6.832;2023-07-13T03:52:02;17.10;99.90
47114;DHT22;32867;51.556;6.832;2023-07-13T03:57:03;17.20;99.90
47114;DHT22;32867;51.556;6.832;2023-07-13T04:02:06;17.10;99.90
47114;DHT22;32867;51.556;6.832;2023-07-13T04:07:08;17.20;99.90
47114;DHT22;32867;51.556;6.832;2023-07-13T04:12:09;17.20;99.90
47114;DHT22;32867;51.556;6.832;2023-07-13T04:17:09;17.20;99.90
47114;DHT22;32867;51.556;6.832;2023-07-13T04:22:10;17.30;99.90
47114;DHT22;32867;51.556;6.832;2023-07-13T04:27:11;17.20;99.90
47114;DHT22;32867;51.556;6.832;2023-07-13T04:32:11;17.20;99.90
47114;DHT22;32867;51.556;6.832;2023-07-13T04:37:12;17.10;99.90
47114;DHT22;32867;51.556;6.832;2023-07-13T04:42:13;17.10;99.90
47114;DHT22;32867;51.556;6.832;2023-07-13T04:47:14;17.00;99.90
47114;DHT22;32867;51.556;6.832;2023-07-13T04:52:14;17.10;99.90
47114;DHT22;32867;51.556;6.832;2023-07-13T04:57:15;17.10;99.90
47114;DHT22;32867;51.556;6.832;2023-07-13T05:02:16;17.20;99.90
47114;DHT22;32867;51.556;6.832;2023-07-13T05:07:17;17.10;99.90
47114;DHT22;32867;51.556;6.832;2023-07-13T05:12:18;17.10;99.90
47114;DHT22;32867;51.556;6.832;2023-07-13T05:17:18;17.10;99.90
47114;DHT22;32867;51.556;6.832;2023-07-13T05:22:19;17.30;99.90
47114;DHT22;32867;51.556;6.832;2023-07-13T05:27:20;17.30;99.90
47114;DHT22;32867;51.556;6.832;2023-07-13T05:32:20;17.30;99.90
47114;DHT22;32867;51.556;6.832;2023-07-13T05:37:21;17.20;99.90
47114;DHT22;32867;51.556;6.832;2023-07-13T05:42:21;17.30;99.90
47114;DHT22;32867;51.556;6.832;2023-07-13T05:47:22;17.10;99.90
47114;DHT22;32867;51.556;6.832;2023-07-13T05:52:23;17.40;99.90
47114;DHT22;32867;51.556;6.832;2023-07-13T05:57:23;17.50;99.90
47114;DHT22;32867;51.556;6.832;2023-07-13T06:02:24;17.40;99.90
47114;DHT22;32867;51.556;6.832;2023-07-13T06:07:26;17.40;99.90
47114;DHT22;32867;51.556;6.832;2023-07-13T06:12:27;17.40;99.90
47114;DHT22;32867;51.556;6.832;2023-07-13T06:17:28;17.50;99.90
47114;DHT22;32867;51.556;6.832;2023-07-13T06:22:28;17.70;99.90
47114;DHT22;32867;51.556;6.832;2023-07-13T06:27:31;17.50;99.90
47114;DHT22;32867;51.556;6.832;2023-07-13T06:32:32;17.60;99.90
47114;DHT22;32867;51.556;6.832;2023-07-13T06:37:32;17.60;99.90
47114;DHT22;32867;51.556;6.832;2023-07-13T06:42:33;17.70;99.90
47114;DHT22;32867;51.556;6.832;2023-07-13T06:47:34;17.60;99.90
47114;DHT22;32867;51.556;6.832;2023-07-13T06:52:35;17.90;99.90
47114;DHT22;32867;51.556;6.832;2023-07-13T06:57:37;18.00;99.90
47114;DHT22;32867;51.556;6.832;2023-07-13T07:02:37;18.00;99.90
47114;DHT22;32867;51.556;6.832;2023-07-13T07:07:38;18.00;99.90
47114;DHT22;32867;51.556;6.832;2023-07-13T07:12:38;18.00;99.90
47114;DHT22;32867;51.556;6.832;2023-07-13T07:17:39;18.50;99.90
47114;DHT22;32867;51.556;6.832;2023-07-13T07:22:41;18.50;99.90
47114;DHT22;32867;51.556;6.832;2023-07-13T07:27:42;18.80;99.90
47114;DHT22;32867;51.556;6.832;2023-07-13T07:32:42;19.00;99.90
47114;DHT22;32867;51.556;6.832;2023-07-13T07:37:43;19.20;99.90
47114;DHT22;32867;51.556;6.832;2023-07-13T07:42:44;19.50;99.90
47114;DHT22;32867;51.556;6.832;2023-07-13T07:47:44;19.80;99.90
47114;DHT22;32867;51.556;6.832;2023-07-13T07:52:45;19.40;99.90
47114;DHT22;32867;51.556;6.832;2023-07-13T07:57:46;19.60;99.90
47114;DHT22;32867;51.556;6.832;2023-07-13T08:02:46;19.20;99.90
47114;DHT22;32867;51.556;6.832;2023-07-13T08:07:47;19.20;99.90
47114;DHT22;32867;51.556;6.832;2023-07-13T08:12:48;19.70;99.90
47114;DHT22;32867;51.556;6.832;2023-07-13T08:17:49;20.10;99.90
47114;DHT22;32867;51.556;6.832;2023-07-13T08:22:49;20.20;99.90
47114;DHT22;32867;51.556;6.832;2023-07-13T08:27:50;19.80;99.90
47114;DHT22;32867;51.556;6.832;2023-07-13T08:32:50;20.40;99.90
47114;DHT22;32867;51.556;6.832;2023-07-13T08:37:51;20.40;99.90
47114;DHT22;32867;51.556;6.832;2023-07-13T08:42:58;20.60;99.90
47114;DHT22;32867;51.556;6.832;2023-07-13T08:48:05;20.60;99.90
47114;DHT22;32867;51.556;6.832;2023-07-13T08:53:11;20.30;99.90
47114;DHT22;32867;51.556;6.832;2023-07-13T08:58:15;20.00;99.90
47114;DHT22;32867;51.556;6.832;2023-07-13T09:03:23;20.70;99.90
47114;DHT22;32867;51.556;6.832;2023-07-13T09:19:30;20.60;99.90
47114;DHT22;32867;51.556;6.832;2023-07-13T09:24:39;20.70;99.90
47114;DHT22;32867;51.556;6.832;2023-07-13T09:30:29;20.20;99.90
47114;DHT22;32867;51.556;6.832;2023-07-13T09:35:12;20.20;99.90
47114;DHT22;32867;51.556;6.832;2023-07-13T09:40:25;20.30;99.90
47114;DHT22;32867;51.556;6.832;2023-07-13T09:45:30;20.60;99.90
47114;DHT22;32867;51.556;6.832;2023-07-13T09:50:31;20.40;99.90
47114;DHT22;32867;51.556;6.832;2023-07-13T09:55:35;20.30;99.90
47114;DHT22;32867;51.556;6.832;2023-07-13T10:00:36;20.70;99.90
47114;DHT22;32867;51.556;6.832;2023-07-13T10:05:41;21.10;99.90
47114;DHT22;32867;51.556;6.832;2023-07-13T10:10:42;21.50;99.90
47114;DHT22;32867;51.556;6.832;2023-07-13T10:15:42;21.80;99.60
47114;DHT22;32867;51.556;6.832;2023-07-13T10:20:43;21.90;98.10
47114;DHT22;32867;51.556;6.832;2023-07-13T10:25:46;22.30;97.20
47114;DHT22;32867;51.556;6.832;2023-07-13T10:30:48;22.10;97.00
47114;DHT22;32867;51.556;6.832;2023-07-13T10:35:54;22.30;96.60
47114;DHT22;32867;51.556;6.832;2023-07-13T10:41:01;22.60;95.70
47114;DHT22;32867;51.556;6.832;2023-07-13T10:46:04;22.30;96.10
47114;DHT22;32867;51.556;6.832;2023-07-13T10:51:06;22.30;95.40
47114;DHT22;32867;51.556;6.832;2023-07-13T11:01:15;22.60;94.70
47114;DHT22;32867;51.556;6.832;2023-07-13T11:21:34;23.30;90.10
47114;DHT22;32867;51.556;6.832;2023-07-13T11:31:54;23.00;87.20
47114;DHT22;32867;51.556;6.832;2023-07-13T11:36:57;23.40;89.60
47114;DHT22;32867;51.556;6.832;2023-07-13T11:42:01;23.90;85.90
47114;DHT22;32867;51.556;6.832;2023-07-13T11:47:14;23.90;84.00
47114;DHT22;32867;51.556;6.832;2023-07-13T11:52:22;23.70;82.10
47114;DHT22;32867;51.556;6.832;2023-07-13T11:57:33;23.70;82.80
47114;DHT22;32867;51.556;6.832;2023-07-13T12:02:40;23.20;85.00
47114;DHT22;32867;51.556;6.832;2023-07-13T12:07:42;23.10;83.80
47114;DHT22;32867;51.556;6.832;2023-07-13T12:12:52;23.80;82.50
47114;DHT22;32867;51.556;6.832;2023-07-13T12:17:56;24.40;78.80
47114;DHT22;32867;51.556;6.832;2023-07-13T12:22:57;24.50;78.00
47114;DHT22;32867;51.556;6.832;2023-07-13T12:27:57;23.70;80.10
47114;DHT22;32867;51.556;6.832;2023-07-13T12:33:08;23.50;80.80
47114;DHT22;32867;51.556;6.832;2023-07-13T12:38:11;23.70;78.90
47114;DHT22;32867;51.556;6.832;2023-07-13T12:43:13;24.20;79.70
47114;DHT22;32867;51.556;6.832;2023-07-13T12:48:16;23.40;79.90
47114;DHT22;32867;51.556;6.832;2023-07-13T12:53:21;23.20;80.30
47114;DHT22;32867;51.556;6.832;2023-07-13T12:58:32;22.90;83.00
47114;DHT22;32867;51.556;6.832;2023-07-13T13:03:35;21.70;94.00
47114;DHT22;32867;51.556;6.832;2023-07-13T13:08:36;20.70;99.90
47114;DHT22;32867;51.556;6.832;2023-07-13T13:13:37;20.20;99.90
47114;DHT22;32867;51.556;6.832;2023-07-13T13:18:38;20.30;99.90
47114;DHT22;32867;51.556;6.832;2023-07-13T13:23:40;20.60;99.90
47114;DHT22;32867;51.556;6.832;2023-07-13T13:28:45;20.60;99.90
47114;DHT22;32867;51.556;6.832;2023-07-13T13:33:45;20.90;99.90
47114;DHT22;32867;51.556;6.832;2023-07-13T13:38:49;21.00;99.90
47114;DHT22;32867;51.556;6.832;2023-07-13T13:43:50;21.20;99.90
47114;DHT22;32867;51.556;6.832;2023-07-13T13:48:53;21.30;99.90
47114;DHT22;32867;51.556;6.832;2023-07-13T13:53:53;21.40;99.90
47114;DHT22;32867;51.556;6.832;2023-07-13T13:58:54;21.50;99.90
47114;DHT22;32867;51.556;6.832;2023-07-13T14:03:54;21.50;99.90
47114;DHT22;32867;51.556;6.832;2023-07-13T14:08:55;21.70;99.90
47114;DHT22;32867;51.556;6.832;2023-07-13T14:13:58;21.60;99.90
47114;DHT22;32867;51.556;6.832;2023-07-13T14:19:00;21.30;99.90
47114;DHT22;32867;51.556;6.832;2023-07-13T14:24:01;21.20;99.90
47114;DHT22;32867;51.556;6.832;2023-07-13T14:29:16;21.30;99.90
47114;DHT22;32867;51.556;6.832;2023-07-13T14:34:17;21.30;99.90
47114;DHT22;32867;51.556;6.832;2023-07-13T14:39:24;21.20;99.90
47114;DHT22;32867;51.556;6.832;2023-07-13T14:44:27;21.80;99.90
47114;DHT22;32867;51.556;6.832;2023-07-13T14:49:36;22.50;99.90
47114;DHT22;32867;51.556;6.832;2023-07-13T14:54:37;23.20;99.60
47114;DHT22;32867;51.556;6.832;2023-07-13T14:59:41;23.50;96.00
47114;DHT22;32867;51.556;6.832;2023-07-13T15:04:44;23.10;95.20
47114;DHT22;32867;51.556;6.832;2023-07-13T15:09:45;22.80;96.10
47114;DHT22;32867;51.556;6.832;2023-07-13T15:14:48;22.60;99.50
47114;DHT22;32867;51.556;6.832;2023-07-13T15:19:48;22.40;99.30
47114;DHT22;32867;51.556;6.832;2023-07-13T15:24:51;22.30;99.00
47114;DHT22;32867;51.556;6.832;2023-07-13T15:29:52;21.70;99.00
47114;DHT22;32867;51.556;6.832;2023-07-13T15:34:53;21.50;99.50
47114;DHT22;32867;51.556;6.832;2023-07-13T15:39:53;21.30;99.60
47114;DHT22;32867;51.556;6.832;2023-07-13T15:44:54;21.10;99.90
47114;DHT22;32867;51.556;6.832;2023-07-13T15:49:55;21.10;99.90
47114;DHT22;32867;51.556;6.832;2023-07-13T15:54:58;21.10;99.90
47114;DHT22;32867;51.556;6.832;2023-07-13T16:00:00;20.90;99.90
47114;DHT22;32867;51.556;6.832;2023-07-13T16:05:00;21.10;99.90
47114;DHT22;32867;51.556;6.832;2023-07-13T16:10:01;21.20;99.90
47114;DHT22;32867;51.556;6.832;2023-07-13T16:15:04;21.30;99.90
47114;DHT22;32867;51.556;6.832;2023-07-13T16:20:07;21.30;99.90
47114;DHT22;32867;51.556;6.832;2023-07-13T16:25:25;21.10;97.00
47114;DHT22;32867;51.556;6.832;2023-07-13T16:30:28;21.00;96.30
47114;DHT22;32867;51.556;6.832;2023-07-13T16:35:33;21.10;96.30
47114;DHT22;32867;51.556;6.832;2023-07-13T16:40:35;21.10;95.60
47114;DHT22;32867;51.556;6.832;2023-07-13T16:45:36;21.40;95.90
47114;DHT22;32867;51.556;6.832;2023-07-13T16:50:38;21.30;95.90
47114;DHT22;32867;51.556;6.832;2023-07-13T16:55:41;21.10;97.80
47114;DHT22;32867;51.556;6.832;2023-07-13T17:00:44;21.20;97.90
47114;DHT22;32867;51.556;6.832;2023-07-13T17:05:47;21.20;98.20
47114;DHT22;32867;51.556;6.832;2023-07-13T17:10:53;21.10;98.30
47114;DHT22;32867;51.556;6.832;2023-07-13T17:16:00;21.20;98.10
47114;DHT22;32867;51.556;6.832;2023-07-13T17:21:05;21.20;98.50
47114;DHT22;32867;51.556;6.832;2023-07-13T17:26:06;21.40;98.70
47114;DHT22;32867;51.556;6.832;2023-07-13T17:31:12;21.50;99.30
47114;DHT22;32867;51.556;6.832;2023-07-13T17:36:18;21.70;99.10
47114;DHT22;32867;51.556;6.832;2023-07-13T17:41:19;21.80;98.20
47114;DHT22;32867;51.556;6.832;2023-07-13T17:46:31;22.10;98.00
47114;DHT22;32867;51.556;6.832;2023-07-13T17:51:32;22.50;96.80
47114;DHT22;32867;51.556;6.832;2023-07-13T17:56:33;22.80;94.80
47114;DHT22;32867;51.556;6.832;2023-07-13T18:01:35;22.60;93.30
47114;DHT22;32867;51.556;6.832;2023-07-13T18:06:42;22.60;93.10
47114;DHT22;32867;51.556;6.832;2023-07-13T18:11:53;22.30;92.70
47114;DHT22;32867;51.556;6.832;2023-07-13T18:16:56;22.20;93.30
47114;DHT22;32867;51.556;6.832;2023-07-13T18:22:03;22.30;92.80
47114;DHT22;32867;51.556;6.832;2023-07-13T18:27:10;22.20;92.80
47114;DHT22;32867;51.556;6.832;2023-07-13T18:32:17;21.90;92.90
47114;DHT22;32867;51.556;6.832;2023-07-13T18:37:21;21.60;93.50
47114;DHT22;32867;51.556;6.832;2023-07-13T18:42:23;21.30;93.90
47114;DHT22;32867;51.556;6.832;2023-07-13T18:47:25;21.20;94.40
47114;DHT22;32867;51.556;6.832;2023-07-13T18:52:29;21.00;94.50
47114;DHT22;32867;51.556;6.832;2023-07-13T18:57:31;20.90;94.90
47114;DHT22;32867;51.556;6.832;2023-07-13T19:02:32;20.90;95.30
47114;DHT22;32867;51.556;6.832;2023-07-13T19:07:33;20.90;95.40
47114;DHT22;32867;51.556;6.832;2023-07-13T19:12:33;20.70;95.50
47114;DHT22;32867;51.556;6.832;2023-07-13T19:17:35;20.60;96.20
47114;DHT22;32867;51.556;6.832;2023-07-13T19:22:36;20.60;96.10
47114;DHT22;32867;51.556;6.832;2023-07-13T19:27:40;20.50;96.70
47114;DHT22;32867;51.556;6.832;2023-07-13T19:32:41;20.40;96.90
47114;DHT22;32867;51.556;6.832;2023-07-13T19:37:43;20.30;97.40
47114;DHT22;32867;51.556;6.832;2023-07-13T19:42:43;20.30;97.70
47114;DHT22;32867;51.556;6.832;2023-07-13T19:47:45;20.40;98.00
47114;DHT22;32867;51.556;6.832;2023-07-13T19:52:50;20.40;98.00
47114;DHT22;32867;51.556;6.832;2023-07-13T19:57:52;20.40;98.20
47114;DHT22;32867;51.556;6.832;2023-07-13T20:02:55;20.40;98.40
47114;DHT22;32867;51.556;6.832;2023-07-13T20:07:59;20.40;98.70
47114;DHT22;32867;51.556;6.832;2023-07-13T20:13:00;20.40;98.70
47114;DHT22;32867;51.556;6.832;2023-07-13T20:18:01;20.40;98.70
47114;DHT22;32867;51.556;6.832;2023-07-13T20:23:15;20.40;98.90
47114;DHT22;32867;51.556;6.832;2023-07-13T20:28:18;20.40;99.10
47114;DHT22;32867;51.556;6.832;2023-07-13T20:33:25;20.50;99.00
47114;DHT22;32867;51.556;6.832;2023-07-13T20:38:27;20.40;99.00
47114;DHT22;32867;51.556;6.832;2023-07-13T20:43:28;20.40;99.00
47114;DHT22;32867;51.556;6.832;2023-07-13T20:48:38;20.30;99.10
47114;DHT22;32867;51.556;6.832;2023-07-13T20:53:41;20.30;99.20
47114;DHT22;32867;51.556;6.832;2023-07-13T20:58:43;20.20;99.20
47114;DHT22;32867;51.556;6.832;2023-07-13T21:03:44;20.20;99.40
47114;DHT22;32867;51.556;6.832;2023-07-13T21:08:45;20.10;99.40
47114;DHT22;32867;51.556;6.832;2023-07-13T21:13:46;20.10;99.50
47114;DHT22;32867;51.556;6.832;2023-07-13T21:18:48;20.10;99.60
47114;DHT22;32867;51.556;6.832;2023-07-13T21:23:50;20.10;99.80
47114;DHT22;32867;51.556;6.832;2023-07-13T21:28:52;20.00;99.60
47114;DHT22;32867;51.556;6.832;2023-07-13T21:33:57;20.00;99.60
47114;DHT22;32867;51.556;6.832;2023-07-13T21:39:00;20.00;99.60
47114;DHT22;32867;51.556;6.832;2023-07-13T21:44:16;20.00;99.50
47114;DHT22;32867;51.556;6.832;2023-07-13T21:49:18;20.00;99.60
47114;DHT22;32867;51.556;6.832;2023-07-13T21:54:21;20.00;99.90
47114;DHT22;32867;51.556;6.832;2023-07-13T21:59:28;20.00;99.90
47114;DHT22;32867;51.556;6.832;2023-07-13T22:04:29;19.90;99.90
47114;DHT22;32867;51.556;6.832;2023-07-13T22:09:30;19.80;99.90
47114;DHT22;32867;51.556;6.832;2023-07-13T22:14:31;19.70;99.90
47114;DHT22;32867;51.556;6.832;2023-07-13T22:19:32;19.60;99.90
47114;DHT22;32867;51.556;6.832;2023-07-13T22:24:33;19.60;99.90
47114;DHT22;32867;51.556;6.832;2023-07-13T22:29:34;19.40;99.90
47114;DHT22;32867;51.556;6.832;2023-07-13T22:34:36;19.30;99.90
47114;DHT22;32867;51.556;6.832;2023-07-13T22:39:37;19.20;99.90
47114;DHT22;32867;51.556;6.832;2023-07-13T22:44:38;19.20;99.90
47114;DHT22;32867;51.556;6.832;2023-07-13T22:49:40;19.20;99.90
47114;DHT22;32867;51.556;6.832;2023-07-13T22:54:43;19.10;99.90
47114;DHT22;32867;51.556;6.832;2023-07-13T22:59:44;19.00;99.90
47114;DHT22;32867;51.556;6.832;2023-07-13T23:04:47;19.00;99.90
47114;DHT22;32867;51.556;6.832;2023-07-13T23:09:49;19.00;99.90
47114;DHT22;32867;51.556;6.832;2023-07-13T23:14:50;18.90;99.90
47114;DHT22;32867;51.556;6.832;2023-07-13T23:19:50;18.80;99.90
47114;DHT22;32867;51.556;6.832;2023-07-13T23:24:51;18.70;99.90
47114;DHT22;32867;51.556;6.832;2023-07-13T23:29:52;18.70;99.90
47114;DHT22;32867;51.556;6.832;2023-07-13T23:34:53;18.60;99.90
47114;DHT22;32867;51.556;6.832;2023-07-13T23:39:54;18.60;99.90
47114;DHT22;32867;51.556;6.832;2023-07-13T23:44:55;18.60;99.90
47114;DHT22;32867;51.556;6.832;2023-07-13T23:49:56;18.60;99.90
47114;DHT22;32867;51.556;6.832;2023-07-13T23:54:57;18.60;99.90
47114;DHT22;32867;51.556;6.832;2023-07-13T23:59:58;18.60;99.90
